Gore, Virginia
Current Conditions -  °F | °C
As of 1:35 PM on Monday 26 Jan 2015 (Local Time) from KOKV Reporting Station
Haze Haze  
Wind Chill: 27°   Ceiling: 500
Heat Index: 32°   Visibility: 3mi
Dew Point: 28°   Wind: 5mph
Humidity: 87%   Direction: 360°N
Pressure: 29.72"   Gusts: NA
Location:  39.26°N, 78.33°W
Report Text: KOKV 261835Z AUTO 36004KT 3SM BR BKN005 OVC012 00/M02 A2972 RMK AO2
Loading
Personal Weather Stations






























Interactive Weather Map New forecast layout! Learn more

10-Day Weather Forecast

Advertisements
Track Severe Weather on mobile